• location
  • image
mod_vvisit_countermod_vvisit_countermod_vvisit_countermod_vvisit_countermod_vvisit_countermod_vvisit_counter
mod_vvisit_counterToday15
mod_vvisit_counterYesterday1330
mod_vvisit_counterThis week2274
mod_vvisit_counterLast week16542
mod_vvisit_counterThis month30643
mod_vvisit_counterLast month35663
mod_vvisit_counterAll days633259

We have: 2 guests online
Your IP: 54.196.79.241
 , 
Today: Apr 25, 2017
Airport

Certifications

 

DIRECTOR OF STATE FOOD AND VETERINARY SERVICE

ORDER  FOR ANIMAL FOOD MANAGEMENT SUBJECT VETERINARY APPROVAL

 



 

SIAULIAI STATE FOOD AND VETERINARY SERVICE OF STATE FOOD AND VETERINARY SERVICE

FOOD MANAGEMENT SUBJECT APPROVAL CERTIFICATE

Today

Tuesday, 25 April 2017

Weather Forecast

Siauliai °C
   

Aviation Weather Forecast

[source: ADDS]
METAR
EYSA 242250Z AUTO 19013KT 9999NDV -RA SCT019 BKN039 OVC057 05/02 Q1006 =
TAF
TAF EYSA 242000Z 2421/2506 19014KT 5000 RA BR OVC015 TEMPO 2421/2424 BKN005 OVC010 BECMG 2500/2501 BKN005 OVC010 BECMG 2503/2504 8000 =
SR / SS: 02:59 / 17:52 UTC (EYSA 2017-04-25)

Search

Who's Online

We have 2 guests online

tic logo en